createdAt,value
2019-05-07T00:01:27.212Z,8.77
2019-05-07T00:03:56.619Z,11.50
2019-05-07T00:06:32.484Z,9.93
2019-05-07T00:09:03.180Z,9.93
2019-05-07T00:11:33.181Z,9.60
2019-05-07T00:14:06.140Z,9.60
2019-05-07T00:16:36.591Z,8.27
2019-05-07T00:19:32.253Z,9.33
2019-05-07T00:22:02.389Z,10.43
2019-05-07T00:24:45.233Z,10.80
2019-05-07T00:27:22.759Z,11.53
2019-05-07T00:30:15.042Z,12.03
2019-05-07T00:32:45.580Z,11.43
2019-05-07T00:35:17.607Z,12.30
2019-05-07T00:37:53.364Z,13.90
2019-05-07T00:43:39.470Z,11.00
2019-05-07T00:49:33.733Z,9.73
2019-05-07T00:52:39.884Z,8.77
2019-05-07T00:55:02.857Z,9.07
2019-05-07T00:57:34.316Z,9.57
2019-05-07T01:00:13.118Z,10.20
2019-05-07T01:02:44.298Z,10.30
2019-05-07T01:05:13.746Z,8.43
2019-05-07T01:07:46.072Z,8.90
2019-05-07T01:10:38.943Z,10.43
2019-05-07T01:13:29.673Z,9.17
2019-05-07T01:16:06.599Z,7.27
2019-05-07T01:18:35.878Z,10.67
2019-05-07T01:21:38.422Z,8.73
2019-05-07T01:24:14.937Z,8.63
2019-05-07T01:26:54.163Z,8.77
2019-05-07T01:29:24.491Z,8.73
2019-05-07T01:32:12.563Z,7.63
2019-05-07T01:35:02.454Z,9.33
2019-05-07T01:37:32.671Z,9.17
2019-05-07T01:40:03.219Z,6.70
2019-05-07T01:42:42.335Z,10.23
2019-05-07T01:45:25.579Z,8.67
2019-05-07T01:47:58.038Z,8.33
2019-05-07T01:51:05.179Z,9.10
2019-05-07T01:53:48.799Z,8.10
2019-05-07T01:56:18.787Z,9.33
2019-05-07T01:58:48.226Z,9.40
2019-05-07T02:04:47.489Z,10.83
2019-05-07T02:07:34.329Z,7.87
2019-05-07T02:10:32.328Z,8.90
2019-05-07T02:13:22.832Z,8.53
2019-05-07T02:16:00.834Z,9.00
2019-05-07T02:18:35.482Z,8.30
2019-05-07T02:21:05.579Z,7.97
2019-05-07T02:23:53.419Z,9.27
2019-05-07T02:26:23.162Z,8.87
2019-05-07T02:28:54.393Z,8.17
2019-05-07T02:31:24.821Z,8.77
2019-05-07T02:33:56.150Z,9.13
2019-05-07T02:36:26.479Z,7.47
2019-05-07T02:39:12.873Z,9.17
2019-05-07T02:41:44.048Z,7.53
2019-05-07T02:44:14.424Z,8.67
2019-05-07T02:47:08.902Z,9.63
2019-05-07T02:49:44.744Z,7.70
2019-05-07T02:52:36.681Z,9.93
2019-05-07T02:55:37.317Z,9.57
2019-05-07T02:58:09.889Z,8.40
2019-05-07T03:00:47.156Z,7.03
2019-05-07T03:03:17.293Z,8.00
2019-05-07T03:06:06.427Z,7.50
2019-05-07T03:08:36.372Z,10.53
2019-05-07T03:11:09.668Z,8.87
2019-05-07T03:13:43.159Z,9.00
2019-05-07T03:16:33.678Z,12.07
2019-05-07T03:18:53.064Z,8.80
2019-05-07T03:21:23.541Z,9.43
2019-05-07T03:24:16.997Z,7.80
2019-05-07T03:26:47.441Z,7.53
2019-05-07T03:29:23.632Z,9.03
2019-05-07T03:37:50.466Z,9.90
2019-05-07T03:40:32.863Z,7.87
2019-05-07T03:43:16.723Z,10.13
2019-05-07T03:46:07.646Z,6.57
2019-05-07T03:49:48.099Z,6.67
2019-05-07T03:52:38.034Z,7.17
2019-05-07T03:58:04.834Z,6.80
2019-05-07T04:00:37.545Z,7.23
2019-05-07T04:03:08.778Z,6.90
2019-05-07T04:05:38.878Z,9.10
2019-05-07T04:08:12.853Z,9.03
2019-05-07T04:10:44.149Z,10.03
2019-05-07T04:13:13.673Z,6.93
2019-05-07T04:15:46.742Z,8.27
2019-05-07T04:18:23.839Z,7.30
2019-05-07T04:20:56.699Z,8.17
2019-05-07T04:23:25.844Z,8.00
2019-05-07T04:26:07.235Z,7.07
2019-05-07T04:28:55.139Z,9.67
2019-05-07T04:31:25.605Z,9.57
2019-05-07T04:33:56.671Z,5.90
2019-05-07T04:36:33.835Z,9.47
2019-05-07T04:39:03.887Z,7.87
2019-05-07T04:41:35.901Z,9.13
2019-05-07T04:44:04.898Z,8.73
2019-05-07T04:46:33.937Z,7.33
2019-05-07T04:49:09.160Z,7.97
2019-05-07T04:51:44.325Z,9.10
2019-05-07T04:54:13.500Z,9.80
2019-05-07T04:56:43.644Z,8.93
2019-05-07T04:59:13.327Z,7.90
2019-05-07T05:01:48.689Z,7.13
2019-05-07T05:04:26.908Z,8.87
2019-05-07T05:07:04.253Z,10.70
2019-05-07T05:09:34.521Z,8.57
2019-05-07T05:12:06.833Z,8.77
2019-05-07T05:14:37.098Z,8.00
2019-05-07T05:17:15.469Z,8.03
2019-05-07T05:19:46.551Z,9.03
2019-05-07T05:22:24.934Z,8.70
2019-05-07T05:25:26.880Z,10.27
2019-05-07T05:27:56.403Z,9.10
2019-05-07T05:30:32.959Z,10.33
2019-05-07T05:33:08.851Z,8.30
2019-05-07T05:38:33.247Z,10.60
2019-05-07T05:41:05.990Z,10.43
2019-05-07T05:43:43.771Z,11.43
2019-05-07T05:46:13.481Z,9.20
2019-05-07T05:48:42.847Z,8.40
2019-05-07T05:51:28.944Z,11.40
2019-05-07T05:54:35.442Z,11.60
2019-05-07T05:57:23.407Z,10.53
2019-05-07T06:00:14.168Z,8.27
2019-05-07T06:03:05.021Z,9.30
2019-05-07T06:06:05.830Z,10.73
2019-05-07T06:08:57.106Z,11.43
2019-05-07T06:11:42.999Z,9.87
2019-05-07T06:14:34.032Z,11.70
2019-05-07T06:17:23.434Z,12.30
2019-05-07T06:20:22.579Z,11.83
2019-05-07T06:23:19.652Z,12.87
2019-05-07T06:25:49.181Z,11.43
2019-05-07T06:28:18.084Z,12.83
2019-05-07T06:30:47.052Z,10.50
2019-05-07T06:33:15.886Z,13.83
2019-05-07T06:35:47.654Z,10.17
2019-05-07T06:38:17.013Z,10.37
2019-05-07T06:41:12.148Z,11.53
2019-05-07T06:43:54.397Z,13.77
2019-05-07T06:46:23.328Z,13.37
2019-05-07T06:48:58.768Z,12.43
2019-05-07T06:51:27.681Z,12.87
2019-05-07T06:53:56.526Z,14.60
2019-05-07T06:56:25.371Z,15.17
2019-05-07T06:59:12.951Z,14.83
2019-05-07T07:02:05.680Z,13.33
2019-05-07T07:04:44.604Z,14.20
2019-05-07T07:07:42.001Z,15.87
2019-05-07T07:10:35.517Z,14.90
2019-05-07T07:13:04.502Z,18.03
2019-05-07T07:15:33.418Z,18.03
2019-05-07T07:18:03.290Z,17.33
2019-05-07T07:20:32.720Z,16.33
2019-05-07T07:23:04.612Z,16.83
2019-05-07T07:25:33.393Z,15.37
2019-05-07T07:28:02.873Z,18.73
2019-05-07T07:30:52.685Z,16.33
2019-05-07T07:33:23.905Z,17.53
2019-05-07T07:35:53.373Z,16.07
2019-05-07T07:38:33.013Z,14.83
2019-05-07T07:41:18.731Z,14.50
2019-05-07T07:43:52.440Z,16.67
2019-05-07T07:46:22.130Z,14.37
2019-05-07T07:49:04.493Z,15.00
2019-05-07T07:51:37.864Z,16.93
2019-05-07T07:53:56.787Z,15.50
2019-05-07T07:56:52.639Z,15.40
2019-05-07T07:59:38.589Z,14.40
2019-05-07T08:02:19.237Z,14.73
2019-05-07T08:04:49.266Z,13.03
2019-05-07T08:07:19.269Z,11.47
2019-05-07T08:09:52.028Z,12.47
2019-05-07T08:12:22.313Z,10.03
2019-05-07T08:14:52.046Z,10.13
2019-05-07T08:17:22.365Z,10.93
2019-05-07T08:19:53.898Z,12.97
2019-05-07T08:22:22.994Z,12.27
2019-05-07T08:24:52.068Z,13.70
2019-05-07T08:27:22.180Z,10.40
2019-05-07T08:29:53.594Z,12.00
2019-05-07T08:33:02.006Z,11.10
2019-05-07T08:35:49.773Z,11.17
2019-05-07T08:38:18.745Z,11.10
2019-05-07T08:40:48.865Z,10.47
2019-05-07T08:43:18.011Z,12.00
2019-05-07T08:46:15.078Z,11.50
2019-05-07T08:48:47.209Z,11.37
2019-05-07T08:51:17.393Z,9.93
2019-05-07T08:53:48.019Z,10.50
2019-05-07T08:56:26.293Z,10.90
2019-05-07T08:58:55.150Z,10.47
2019-05-07T09:01:24.037Z,10.67
2019-05-07T09:03:53.705Z,11.80
2019-05-07T09:06:34.718Z,13.20
2019-05-07T09:09:12.853Z,11.27
2019-05-07T09:11:42.592Z,12.50
2019-05-07T09:14:23.563Z,10.77
2019-05-07T09:16:52.755Z,8.60
2019-05-07T09:19:21.921Z,10.97
2019-05-07T09:21:52.739Z,11.40
2019-05-07T09:24:22.523Z,11.47
2019-05-07T09:27:19.657Z,12.87
2019-05-07T09:30:06.226Z,10.20
2019-05-07T09:32:42.521Z,9.10
2019-05-07T09:35:15.445Z,9.37
2019-05-07T09:37:44.817Z,8.63
2019-05-07T09:40:13.907Z,9.50
2019-05-07T09:42:52.391Z,9.93
2019-05-07T09:45:19.909Z,8.07
2019-05-07T09:47:52.316Z,11.00
2019-05-07T09:50:22.074Z,9.73
2019-05-07T09:52:51.879Z,9.00
2019-05-07T09:55:23.317Z,10.17
2019-05-07T09:57:52.780Z,12.40
2019-05-07T10:00:22.747Z,11.20
2019-05-07T10:02:52.793Z,8.33
2019-05-07T10:05:24.143Z,12.40
2019-05-07T10:07:56.455Z,12.50
2019-05-07T10:10:27.608Z,8.07
2019-05-07T10:13:17.486Z,8.27
2019-05-07T10:15:52.599Z,10.47
2019-05-07T10:18:22.726Z,9.87
2019-05-07T10:20:55.016Z,10.27
2019-05-07T10:23:24.212Z,10.77
2019-05-07T10:25:54.274Z,9.80
2019-05-07T10:28:24.318Z,5.47
2019-05-07T10:30:55.291Z,8.30
2019-05-07T10:33:24.945Z,6.57
2019-05-07T10:35:57.940Z,7.03
2019-05-07T10:38:27.865Z,6.37
2019-05-07T10:40:59.650Z,15.97
2019-05-07T10:43:28.613Z,46.53
2019-05-07T10:46:26.412Z,8.63
2019-05-07T10:49:01.967Z,6.70
2019-05-07T10:51:32.230Z,6.30
2019-05-07T10:54:02.272Z,6.17
2019-05-07T10:56:32.680Z,6.57
2019-05-07T10:59:02.854Z,6.30
2019-05-07T11:01:38.813Z,6.37
2019-05-07T11:04:07.776Z,5.90
2019-05-07T11:06:36.756Z,5.33
2019-05-07T11:09:08.992Z,6.80
2019-05-07T11:11:39.554Z,9.10
2019-05-07T11:14:08.802Z,7.60
2019-05-07T11:16:44.997Z,6.60
2019-05-07T11:19:13.884Z,8.10
2019-05-07T11:21:42.903Z,8.83
2019-05-07T11:24:12.206Z,8.30
2019-05-07T11:26:41.974Z,8.93
2019-05-07T11:29:13.048Z,8.37
2019-05-07T11:31:42.409Z,7.73
2019-05-07T11:34:11.971Z,8.93
2019-05-07T11:36:42.954Z,6.70
2019-05-07T11:39:12.332Z,8.30
2019-05-07T11:42:04.493Z,7.23
2019-05-07T11:44:33.867Z,21.53
2019-05-07T11:47:22.492Z,5.03
2019-05-07T11:50:09.235Z,6.50
2019-05-07T11:52:45.556Z,6.13
2019-05-07T11:55:14.443Z,4.07
2019-05-07T11:57:44.501Z,3.57
2019-05-07T12:00:24.792Z,4.60
2019-05-07T12:02:53.708Z,4.97
2019-05-07T12:05:22.762Z,3.50
2019-05-07T12:07:51.752Z,5.03
2019-05-07T12:10:22.254Z,4.67
2019-05-07T12:12:54.459Z,4.13
2019-05-07T12:15:26.365Z,3.00
2019-05-07T12:17:55.341Z,5.57
2019-05-07T12:20:27.612Z,4.47
2019-05-07T12:22:56.606Z,4.73
2019-05-07T12:25:25.621Z,5.07
2019-05-07T12:27:54.618Z,3.57
2019-05-07T12:30:35.032Z,4.83
2019-05-07T12:33:25.585Z,5.10
2019-05-07T12:35:52.338Z,4.83
2019-05-07T12:38:24.060Z,4.67
2019-05-07T12:40:53.325Z,4.60
2019-05-07T12:43:22.225Z,6.63
2019-05-07T12:45:52.465Z,3.97
2019-05-07T12:48:21.836Z,4.60
2019-05-07T12:50:52.314Z,4.63
2019-05-07T12:53:49.844Z,4.23
2019-05-07T12:56:19.048Z,4.13
2019-05-07T12:58:53.909Z,4.60
2019-05-07T13:01:57.403Z,5.30
2019-05-07T13:04:27.698Z,4.90
2019-05-07T13:07:06.424Z,3.50
2019-05-07T13:09:38.769Z,4.13
2019-05-07T13:12:07.774Z,3.80
2019-05-07T13:14:37.092Z,3.60
2019-05-07T13:17:06.282Z,4.37
2019-05-07T13:19:35.206Z,3.70
2019-05-07T13:22:04.252Z,3.67
2019-05-07T13:24:33.143Z,3.23
2019-05-07T13:27:03.346Z,4.37
2019-05-07T13:29:37.139Z,3.10
2019-05-07T13:32:05.140Z,4.27
2019-05-07T13:34:34.435Z,3.23
2019-05-07T13:37:15.130Z,3.53
2019-05-07T13:39:52.197Z,3.60
2019-05-07T13:42:39.221Z,5.23
2019-05-07T13:45:20.045Z,2.93
2019-05-07T13:47:55.361Z,4.00
2019-05-07T13:50:24.568Z,3.10
2019-05-07T13:52:53.548Z,3.13
2019-05-07T13:55:22.834Z,3.17
2019-05-07T13:57:52.393Z,3.23
2019-05-07T14:00:32.439Z,3.47
2019-05-07T14:03:03.215Z,3.57
2019-05-07T14:05:35.291Z,6.53
2019-05-07T14:08:04.662Z,2.37
2019-05-07T14:10:34.303Z,5.67
2019-05-07T14:13:11.454Z,5.87
2019-05-07T14:15:35.039Z,5.97
2019-05-07T14:18:04.563Z,3.37
2019-05-07T14:20:33.516Z,2.83
2019-05-07T14:23:05.924Z,3.67
2019-05-07T14:25:37.682Z,4.03
2019-05-07T14:28:16.000Z,2.90
2019-05-07T14:30:47.893Z,3.47
2019-05-07T14:33:38.866Z,2.97
2019-05-07T14:36:14.538Z,3.77
2019-05-07T14:38:46.242Z,4.17
2019-05-07T14:41:15.158Z,3.63
2019-05-07T14:44:06.179Z,3.57
2019-05-07T14:46:47.351Z,3.33
2019-05-07T14:49:08.906Z,3.70
2019-05-07T14:51:44.013Z,3.33
2019-05-07T14:54:12.994Z,3.93
2019-05-07T14:56:42.862Z,3.07
2019-05-07T14:59:12.757Z,3.43
2019-05-07T15:01:42.975Z,5.03
2019-05-07T15:04:13.668Z,3.30
2019-05-07T15:06:48.226Z,5.27
2019-05-07T15:09:17.538Z,4.17
2019-05-07T15:11:46.593Z,4.70
2019-05-07T15:14:15.562Z,3.57
2019-05-07T15:16:44.998Z,3.23
2019-05-07T15:19:21.690Z,3.67
2019-05-07T15:21:54.577Z,2.93
2019-05-07T15:24:23.553Z,3.30
2019-05-07T15:26:54.494Z,4.30
2019-05-07T15:29:23.558Z,3.40
2019-05-07T15:32:21.843Z,3.63
2019-05-07T15:34:52.730Z,3.13
2019-05-07T15:37:21.840Z,3.10
2019-05-07T15:39:52.679Z,4.47
2019-05-07T15:42:22.249Z,4.20
2019-05-07T15:44:52.783Z,4.43
2019-05-07T15:47:27.502Z,4.43
2019-05-07T15:49:59.273Z,3.50
2019-05-07T15:52:57.631Z,3.47
2019-05-07T15:55:19.858Z,4.87
2019-05-07T15:57:52.419Z,4.17
2019-05-07T16:00:26.239Z,4.07
2019-05-07T16:03:02.483Z,3.83
2019-05-07T16:05:31.953Z,3.43
2019-05-07T16:08:05.170Z,2.80
2019-05-07T16:10:34.552Z,3.57
2019-05-07T16:13:07.299Z,2.60
2019-05-07T16:15:36.259Z,4.30
2019-05-07T16:18:09.497Z,4.63
2019-05-07T16:20:38.319Z,3.47
2019-05-07T16:23:14.984Z,3.87
2019-05-07T16:25:38.527Z,4.87
2019-05-07T16:28:12.787Z,3.40
2019-05-07T16:30:42.818Z,7.33
2019-05-07T16:33:12.793Z,3.30
2019-05-07T16:35:43.335Z,3.90
2019-05-07T16:38:14.750Z,4.10
2019-05-07T16:40:43.124Z,3.27
2019-05-07T16:43:15.022Z,4.87
2019-05-07T16:45:43.920Z,7.07
2019-05-07T16:48:14.130Z,8.07
2019-05-07T16:50:45.706Z,5.00
2019-05-07T16:53:26.498Z,4.27
2019-05-07T16:55:48.721Z,3.53
2019-05-07T16:58:38.117Z,4.17
2019-05-07T17:01:08.649Z,5.80
2019-05-07T17:03:48.174Z,2.70
2019-05-07T17:06:17.068Z,4.10
2019-05-07T17:08:59.713Z,2.83
2019-05-07T17:11:29.518Z,4.13
2019-05-07T17:14:02.960Z,3.20
2019-05-07T17:16:31.948Z,2.63
2019-05-07T17:19:03.856Z,3.77
2019-05-07T17:21:32.697Z,3.57
2019-05-07T17:24:02.599Z,2.37
2019-05-07T17:26:33.754Z,4.20
2019-05-07T17:29:02.712Z,3.33
2019-05-07T17:31:34.683Z,2.83
2019-05-07T17:34:03.981Z,3.30
2019-05-07T17:36:33.203Z,2.73
2019-05-07T17:39:09.336Z,3.10
2019-05-07T17:41:44.313Z,3.83
2019-05-07T17:44:16.144Z,2.63
2019-05-07T17:46:51.855Z,2.37
2019-05-07T17:49:21.905Z,2.77
2019-05-07T17:51:54.034Z,2.67
2019-05-07T17:54:24.289Z,3.33
2019-05-07T17:56:53.399Z,2.57
2019-05-07T17:59:22.280Z,3.40
2019-05-07T18:02:07.175Z,3.70
2019-05-07T18:04:54.579Z,3.00
2019-05-07T18:07:25.420Z,3.47
2019-05-07T18:09:54.381Z,3.00
2019-05-07T18:12:23.389Z,2.23
2019-05-07T18:14:52.948Z,3.87
2019-05-07T18:17:43.217Z,3.17
2019-05-07T18:20:23.874Z,2.23
2019-05-07T18:22:52.829Z,4.13
2019-05-07T18:25:24.649Z,2.27
2019-05-07T18:28:01.666Z,3.63
2019-05-07T18:30:32.542Z,3.47
2019-05-07T18:33:27.739Z,3.30
2019-05-07T18:35:59.568Z,4.07
2019-05-07T18:38:32.966Z,2.73
2019-05-07T18:41:02.848Z,3.17
2019-05-07T18:43:33.208Z,2.97
2019-05-07T18:46:02.497Z,3.00
2019-05-07T18:48:35.295Z,2.93
2019-05-07T18:51:05.052Z,3.87
2019-05-07T18:53:34.797Z,4.57
2019-05-07T18:56:04.132Z,3.90
2019-05-07T18:58:34.089Z,3.27
2019-05-07T19:01:08.339Z,2.93
2019-05-07T19:03:41.987Z,3.30
2019-05-07T19:06:15.348Z,3.67
2019-05-07T19:08:53.303Z,4.90
2019-05-07T19:11:26.889Z,3.07
2019-05-07T19:14:00.154Z,4.20
2019-05-07T19:16:32.174Z,3.37
2019-05-07T19:19:02.280Z,3.90
2019-05-07T19:21:32.578Z,2.90
2019-05-07T19:24:04.159Z,2.83
2019-05-07T19:26:33.989Z,5.30
2019-05-07T19:29:06.035Z,3.90
2019-05-07T19:31:37.974Z,3.53
2019-05-07T19:34:12.185Z,4.60
2019-05-07T19:36:42.375Z,7.27
2019-05-07T19:39:12.620Z,7.93
2019-05-07T19:41:43.046Z,6.87
2019-05-07T19:44:16.793Z,3.30
2019-05-07T19:46:47.240Z,3.87
2019-05-07T19:49:20.546Z,3.30
2019-05-07T19:51:49.455Z,3.75
2019-05-07T19:54:27.437Z,3.20
2019-05-07T19:56:56.452Z,2.70
2019-05-07T19:59:27.287Z,3.47
2019-05-07T20:02:02.459Z,3.37
2019-05-07T20:04:32.134Z,4.43
2019-05-07T20:07:04.261Z,3.13
2019-05-07T20:09:35.375Z,4.80
2019-05-07T20:12:04.363Z,4.93
2019-05-07T20:14:36.392Z,3.83
2019-05-07T20:17:05.757Z,4.63
2019-05-07T20:19:41.764Z,4.47
2019-05-07T20:22:13.765Z,4.33
2019-05-07T20:24:47.038Z,4.53
2019-05-07T20:27:16.458Z,4.13
2019-05-07T20:29:45.370Z,3.43
2019-05-07T20:32:18.069Z,4.83
2019-05-07T20:34:46.897Z,4.43
2019-05-07T20:37:16.126Z,4.67
2019-05-07T20:39:48.103Z,6.17
2019-05-07T20:42:17.372Z,4.50
2019-05-07T20:44:46.285Z,6.23
2019-05-07T20:47:15.517Z,7.43
2019-05-07T20:49:47.707Z,7.33
2019-05-07T20:52:16.930Z,8.90
2019-05-07T20:55:01.481Z,6.97
2019-05-07T20:57:35.613Z,10.97
2019-05-07T21:00:07.312Z,8.07
2019-05-07T21:02:47.182Z,4.40
2019-05-07T21:05:06.972Z,6.73
2019-05-07T21:07:39.268Z,6.03
2019-05-07T21:10:12.611Z,6.67
2019-05-07T21:12:45.173Z,7.63
2019-05-07T21:15:14.365Z,8.13
2019-05-07T21:17:43.954Z,5.57
2019-05-07T21:20:13.097Z,7.57
2019-05-07T21:22:42.540Z,7.10
2019-05-07T21:25:12.082Z,6.20
2019-05-07T21:27:43.106Z,6.67
2019-05-07T21:30:13.128Z,7.33
2019-05-07T21:32:48.304Z,8.73
2019-05-07T21:35:17.376Z,7.67
2019-05-07T21:37:49.123Z,5.70
2019-05-07T21:40:22.488Z,6.53
2019-05-07T21:42:52.153Z,7.53
2019-05-07T21:45:23.870Z,6.27
2019-05-07T21:47:54.503Z,7.87
2019-05-07T21:50:23.668Z,5.97
2019-05-07T21:52:58.024Z,8.63
2019-05-07T21:55:35.837Z,6.80
2019-05-07T21:58:23.243Z,8.37
2019-05-07T22:01:18.075Z,5.60
2019-05-07T22:03:55.910Z,5.90
2019-05-07T22:06:28.159Z,6.30
2019-05-07T22:08:57.170Z,5.20
2019-05-07T22:11:27.941Z,6.47
2019-05-07T22:14:02.201Z,9.57
2019-05-07T22:16:32.822Z,4.97
2019-05-07T22:19:05.170Z,8.90
2019-05-07T22:21:34.357Z,4.50
2019-05-07T22:24:04.018Z,4.70
2019-05-07T22:26:33.574Z,5.53
2019-05-07T22:29:03.153Z,8.03
2019-05-07T22:31:45.200Z,5.63
2019-05-07T22:34:22.231Z,4.40
2019-05-07T22:36:52.133Z,4.87
2019-05-07T22:39:22.150Z,6.20
2019-05-07T22:41:51.122Z,5.23
2019-05-07T22:44:23.676Z,7.07
2019-05-07T22:46:52.761Z,6.07
2019-05-07T22:49:23.075Z,5.27
2019-05-07T22:51:54.851Z,5.10
2019-05-07T22:54:23.044Z,5.07
2019-05-07T22:57:14.211Z,5.80
2019-05-07T22:59:43.589Z,4.80
2019-05-07T23:02:12.755Z,6.43
2019-05-07T23:04:43.167Z,5.93
2019-05-07T23:07:18.093Z,5.47
2019-05-07T23:09:46.917Z,6.17
2019-05-07T23:12:19.169Z,7.97
2019-05-07T23:14:48.007Z,5.97
2019-05-07T23:17:22.061Z,7.33
2019-05-07T23:19:53.026Z,6.70
2019-05-07T23:22:22.656Z,5.93
2019-05-07T23:24:52.802Z,7.77
2019-05-07T23:27:22.534Z,6.50
2019-05-07T23:29:52.869Z,7.40
2019-05-07T23:32:25.157Z,8.67
2019-05-07T23:34:57.189Z,6.07
2019-05-07T23:37:26.000Z,5.57
2019-05-07T23:40:03.581Z,5.07
2019-05-07T23:42:34.779Z,5.37
2019-05-07T23:45:06.965Z,5.90
2019-05-07T23:47:35.788Z,6.17
2019-05-07T23:50:05.282Z,6.83
2019-05-07T23:52:34.257Z,5.20
2019-05-07T23:55:06.584Z,5.27
2019-05-07T23:57:38.458Z,5.83
